createdAt,value
2023-01-27T00:26:18.200Z,99.99
2023-01-27T00:27:18.168Z,99.99
2023-01-27T00:28:18.173Z,99.99
2023-01-27T00:29:18.161Z,99.99
2023-01-27T00:30:18.159Z,99.98
2023-01-27T00:31:18.227Z,99.99
2023-01-27T00:32:18.133Z,99.99
2023-01-27T00:33:18.978Z,99.99
2023-01-27T00:34:18.132Z,99.99
2023-01-27T00:35:18.110Z,99.99
2023-01-27T00:36:18.107Z,99.99
2023-01-27T00:37:18.091Z,99.99
2023-01-27T00:38:18.085Z,99.99
2023-01-27T00:39:18.085Z,99.99
2023-01-27T00:40:18.076Z,99.99
2023-01-27T00:41:18.061Z,99.99
2023-01-27T00:42:18.075Z,99.99
2023-01-27T00:43:18.044Z,99.99
2023-01-27T00:44:18.040Z,99.99
2023-01-27T00:45:18.039Z,99.99
2023-01-27T00:46:18.027Z,99.99
2023-01-27T00:47:18.011Z,99.93
2023-01-27T00:48:18.012Z,99.99
2023-01-27T00:49:17.997Z,99.93
2023-01-27T00:50:18.001Z,99.99
2023-01-27T00:51:18.017Z,99.99
2023-01-27T00:52:18.035Z,99.99
2023-01-27T00:53:17.966Z,99.99
2023-01-27T00:54:18.003Z,99.99
2023-01-27T00:55:17.957Z,99.99
2023-01-27T00:56:17.944Z,99.99
2023-01-27T00:57:17.946Z,99.99
2023-01-27T00:58:18.487Z,99.99
2023-01-27T00:59:17.915Z,99.99
2023-01-27T01:00:18.443Z,99.99
2023-01-27T01:01:17.908Z,99.99
2023-01-27T01:02:17.911Z,99.99
2023-01-27T01:03:17.897Z,99.99
2023-01-27T01:04:17.877Z,99.99
2023-01-27T01:05:17.868Z,99.99
2023-01-27T01:06:17.870Z,99.99
2023-01-27T01:07:17.852Z,99.99
2023-01-27T01:08:17.846Z,99.99
2023-01-27T01:09:17.832Z,99.99
2023-01-27T01:10:17.832Z,99.99
2023-01-27T01:11:17.829Z,99.99
2023-01-27T01:12:17.814Z,99.99
2023-01-27T01:13:17.806Z,99.99
2023-01-27T01:14:17.814Z,99.99
2023-01-27T01:15:17.799Z,99.99
2023-01-27T01:16:17.906Z,99.99
2023-01-27T01:17:17.773Z,99.99
2023-01-27T01:18:17.777Z,99.99
2023-01-27T01:19:18.486Z,99.99
2023-01-27T01:20:17.762Z,99.99
2023-01-27T01:21:17.786Z,99.99
2023-01-27T01:22:17.742Z,99.99
2023-01-27T01:23:17.746Z,99.99
2023-01-27T01:24:17.786Z,99.99
2023-01-27T01:25:17.732Z,99.99
2023-01-27T01:26:17.716Z,99.99
2023-01-27T01:27:17.697Z,99.99
2023-01-27T01:28:17.694Z,99.99
2023-01-27T01:29:18.679Z,99.99
2023-01-27T01:30:17.694Z,99.99
2023-01-27T01:31:17.752Z,99.99
2023-01-27T01:32:17.657Z,99.99
2023-01-27T01:33:17.661Z,99.99
2023-01-27T01:34:17.655Z,99.99
2023-01-27T01:35:18.636Z,99.99
2023-01-27T01:36:17.629Z,99.99
2023-01-27T01:37:17.623Z,99.99
2023-01-27T01:38:18.723Z,99.99
2023-01-27T01:39:18.702Z,99.99
2023-01-27T01:40:19.500Z,99.99
2023-01-27T01:41:18.685Z,99.99
2023-01-27T01:42:18.682Z,99.99
2023-01-27T01:43:18.687Z,99.99
2023-01-27T01:44:18.660Z,99.99
2023-01-27T01:45:18.655Z,99.99
2023-01-27T01:46:18.828Z,99.99
2023-01-27T01:47:18.661Z,99.99
2023-01-27T01:48:18.627Z,99.99
2023-01-27T01:49:18.631Z,99.99
2023-01-27T01:50:19.578Z,99.99
2023-01-27T01:51:18.640Z,99.99
2023-01-27T01:52:18.608Z,99.99
2023-01-27T01:53:18.585Z,99.99
2023-01-27T01:54:18.579Z,99.99
2023-01-27T01:55:18.609Z,99.99
2023-01-27T01:56:18.568Z,99.99
2023-01-27T01:57:18.596Z,99.99
2023-01-27T01:58:18.552Z,99.99
2023-01-27T01:59:18.546Z,99.99
2023-01-27T02:00:18.533Z,99.99
2023-01-27T02:01:18.548Z,99.99
2023-01-27T02:02:19.750Z,99.99
2023-01-27T02:03:19.065Z,99.99
2023-01-27T02:04:18.511Z,99.99
2023-01-27T02:05:18.507Z,99.99
2023-01-27T02:06:18.491Z,99.99
2023-01-27T02:07:18.482Z,99.99
2023-01-27T02:08:18.470Z,99.99
2023-01-27T02:09:18.461Z,99.99
2023-01-27T02:10:18.456Z,99.99
2023-01-27T02:11:18.447Z,99.99
2023-01-27T02:12:18.445Z,99.99
2023-01-27T02:13:18.438Z,99.99
2023-01-27T02:14:18.442Z,99.99
2023-01-27T02:15:18.462Z,99.99
2023-01-27T02:16:18.498Z,99.99
2023-01-27T02:17:18.412Z,99.99
2023-01-27T02:18:18.412Z,99.99
2023-01-27T02:19:18.388Z,99.99
2023-01-27T02:20:18.400Z,99.99
2023-01-27T02:21:18.372Z,99.99
2023-01-27T02:22:18.419Z,99.99
2023-01-27T02:23:18.369Z,99.99
2023-01-27T02:24:18.382Z,99.99
2023-01-27T02:25:18.339Z,99.99
2023-01-27T02:26:18.343Z,99.83
2023-01-27T02:27:18.341Z,99.99
2023-01-27T02:28:18.336Z,99.99
2023-01-27T02:29:18.324Z,99.99
2023-01-27T02:30:18.299Z,99.99
2023-01-27T02:31:18.400Z,99.99
2023-01-27T02:32:18.289Z,99.99
2023-01-27T02:33:18.296Z,99.99
2023-01-27T02:34:18.284Z,99.99
2023-01-27T02:35:18.272Z,99.99
2023-01-27T02:36:18.289Z,99.99
2023-01-27T02:37:18.291Z,99.99
2023-01-27T02:38:18.239Z,99.37
2023-01-27T02:39:18.252Z,99.10
2023-01-27T02:40:18.240Z,99.73
2023-01-27T02:41:18.225Z,99.62
2023-01-27T02:42:18.215Z,99.93
2023-01-27T02:43:18.199Z,99.83
2023-01-27T02:44:18.198Z,99.99
2023-01-27T02:45:18.246Z,99.99
2023-01-27T02:46:18.228Z,99.99
2023-01-27T02:47:18.165Z,99.99
2023-01-27T02:48:18.170Z,99.99
2023-01-27T02:49:18.167Z,99.99
2023-01-27T02:50:18.226Z,99.62
2023-01-27T02:51:18.145Z,99.93
2023-01-27T02:52:18.128Z,99.99
2023-01-27T02:53:18.121Z,99.79
2023-01-27T02:54:19.117Z,99.52
2023-01-27T02:55:18.114Z,99.52
2023-01-27T02:56:20.087Z,99.79
2023-01-27T02:57:18.095Z,99.10
2023-01-27T02:58:18.085Z,99.37
2023-01-27T02:59:18.086Z,99.10
2023-01-27T03:00:19.068Z,98.95
2023-01-27T03:01:18.122Z,98.99
2023-01-27T03:02:18.100Z,99.05
2023-01-27T03:03:18.042Z,98.85
2023-01-27T03:04:18.047Z,98.89
2023-01-27T03:05:18.031Z,98.95
2023-01-27T03:06:18.028Z,98.58
2023-01-27T03:07:18.016Z,98.85
2023-01-27T03:08:18.020Z,98.53
2023-01-27T03:09:18.010Z,98.43
2023-01-27T03:10:18.987Z,98.85
2023-01-27T03:11:18.002Z,98.63
2023-01-27T03:12:17.980Z,98.43
2023-01-27T03:13:17.973Z,98.53
2023-01-27T03:14:18.101Z,98.43
2023-01-27T03:15:17.966Z,98.43
2023-01-27T03:16:17.956Z,98.43
2023-01-27T03:17:17.951Z,98.43
2023-01-27T03:18:17.941Z,98.79
2023-01-27T03:19:18.502Z,98.63
2023-01-27T03:20:17.917Z,98.32
2023-01-27T03:21:17.909Z,98.11
2023-01-27T03:22:17.904Z,98.22
2023-01-27T03:23:17.902Z,98.53
2023-01-27T03:24:17.915Z,98.74
2023-01-27T03:25:19.496Z,98.53
2023-01-27T03:26:17.875Z,98.63
2023-01-27T03:27:17.856Z,98.63
2023-01-27T03:28:17.880Z,98.43
2023-01-27T03:29:17.839Z,98.63
2023-01-27T03:30:17.838Z,98.74
2023-01-27T03:31:17.940Z,98.85
2023-01-27T03:32:17.816Z,98.53
2023-01-27T03:33:17.816Z,98.74
2023-01-27T03:34:17.802Z,98.68
2023-01-27T03:35:17.808Z,98.99
2023-01-27T03:36:17.790Z,98.99
2023-01-27T03:37:17.778Z,98.85
2023-01-27T03:38:17.797Z,98.74
2023-01-27T03:39:17.799Z,98.63
2023-01-27T03:40:17.776Z,99.05
2023-01-27T03:41:17.743Z,99.26
2023-01-27T03:42:17.751Z,99.47
2023-01-27T03:43:19.590Z,99.47
2023-01-27T03:44:17.739Z,99.05
2023-01-27T03:45:17.723Z,99.05
2023-01-27T03:46:17.750Z,98.95
2023-01-27T03:47:17.710Z,98.74
2023-01-27T03:48:17.708Z,99.05
2023-01-27T03:49:17.686Z,99.57
2023-01-27T03:50:17.673Z,99.16
2023-01-27T03:51:17.701Z,99.62
2023-01-27T03:52:17.667Z,98.85
2023-01-27T03:53:17.658Z,98.80
2023-01-27T03:54:18.611Z,98.85
2023-01-27T03:55:17.644Z,98.74
2023-01-27T03:56:17.657Z,99.05
2023-01-27T03:57:17.630Z,98.74
2023-01-27T03:58:17.620Z,98.99
2023-01-27T03:59:17.612Z,98.85
2023-01-27T04:00:17.603Z,98.85
2023-01-27T04:01:17.645Z,99.26
2023-01-27T04:02:17.594Z,99.37
2023-01-27T04:03:17.575Z,99.26
2023-01-27T04:04:17.576Z,99.37
2023-01-27T04:05:17.554Z,99.47
2023-01-27T04:06:18.556Z,99.26
2023-01-27T04:07:17.568Z,99.57
2023-01-27T04:08:17.553Z,99.26
2023-01-27T04:09:17.522Z,99.79
2023-01-27T04:10:17.548Z,99.57
2023-01-27T04:11:17.515Z,99.26
2023-01-27T04:12:17.502Z,99.52
2023-01-27T04:13:17.516Z,99.89
2023-01-27T04:14:17.480Z,99.79
2023-01-27T04:15:17.495Z,99.79
2023-01-27T04:16:17.467Z,99.89
2023-01-27T04:17:17.465Z,99.89
2023-01-27T04:18:17.455Z,99.99
2023-01-27T04:19:17.448Z,99.99
2023-01-27T04:20:17.448Z,99.99
2023-01-27T04:21:17.444Z,99.99
2023-01-27T04:23:24.280Z,99.89
2023-01-27T04:24:24.353Z,99.99
2023-01-27T04:25:24.273Z,99.99
2023-01-27T04:26:24.256Z,99.99
2023-01-27T04:27:24.257Z,99.99
2023-01-27T04:28:41.695Z,99.99
2023-01-27T04:29:25.250Z,99.99
2023-01-27T04:30:24.231Z,99.99
2023-01-27T04:31:24.225Z,99.89
2023-01-27T04:32:24.218Z,99.99
2023-01-27T04:33:25.135Z,99.89
2023-01-27T04:34:25.296Z,99.99
2023-01-27T04:35:27.891Z,99.99
2023-01-27T04:36:27.278Z,99.89
2023-01-27T04:37:25.273Z,99.99
2023-01-27T04:38:25.282Z,99.84
2023-01-27T04:39:25.247Z,99.26
2023-01-27T04:40:25.246Z,99.68
2023-01-27T04:41:25.241Z,99.26
2023-01-27T04:42:25.223Z,99.68
2023-01-27T04:43:25.221Z,99.99
2023-01-27T04:44:26.140Z,99.99
2023-01-27T04:45:25.247Z,99.99
2023-01-27T04:46:25.208Z,99.99
2023-01-27T04:47:25.183Z,99.99
2023-01-27T04:48:25.177Z,99.99
2023-01-27T04:49:25.196Z,99.84
2023-01-27T04:50:25.173Z,99.32
2023-01-27T04:51:25.153Z,99.22
2023-01-27T04:52:25.147Z,99.26
2023-01-27T04:53:25.141Z,99.05
2023-01-27T04:54:25.129Z,98.85
2023-01-27T04:55:25.134Z,99.26
2023-01-27T04:56:25.115Z,99.89
2023-01-27T04:57:25.114Z,99.99
2023-01-27T04:58:25.663Z,99.99
2023-01-27T04:59:25.102Z,99.99
2023-01-27T05:00:25.741Z,99.99
2023-01-27T05:01:25.075Z,99.99
2023-01-27T05:02:25.078Z,99.99
2023-01-27T05:03:25.070Z,99.99
2023-01-27T05:04:25.047Z,99.99
2023-01-27T05:05:25.048Z,99.95
2023-01-27T05:06:25.083Z,99.99
2023-01-27T05:07:25.036Z,99.84
2023-01-27T05:08:25.029Z,99.26
2023-01-27T05:09:25.029Z,99.63
2023-01-27T05:10:25.007Z,99.57
2023-01-27T05:11:25.726Z,99.68
2023-01-27T05:12:24.995Z,99.99
2023-01-27T05:13:25.008Z,99.99
2023-01-27T05:14:25.003Z,99.99
2023-01-27T05:15:24.967Z,99.99
2023-01-27T05:16:25.006Z,99.89
2023-01-27T05:17:24.948Z,99.99
2023-01-27T05:18:24.947Z,99.99
2023-01-27T05:19:24.933Z,99.99
2023-01-27T05:20:24.937Z,99.99
2023-01-27T05:21:24.928Z,99.99
2023-01-27T05:22:24.942Z,99.99
2023-01-27T05:23:24.904Z,99.79
2023-01-27T05:24:24.935Z,99.99
2023-01-27T05:25:24.897Z,99.57
2023-01-27T05:26:24.913Z,99.99
2023-01-27T05:27:24.887Z,99.99
2023-01-27T05:28:24.861Z,99.99
2023-01-27T05:29:24.873Z,99.99
2023-01-27T05:30:24.847Z,99.99
2023-01-27T05:31:24.896Z,99.74
2023-01-27T05:32:24.831Z,99.05
2023-01-27T05:33:26.720Z,99.01
2023-01-27T05:34:25.170Z,99.37
2023-01-27T05:35:25.720Z,99.53
2023-01-27T05:36:24.835Z,99.47
2023-01-27T05:37:25.724Z,99.37
2023-01-27T05:38:26.723Z,99.68
2023-01-27T05:39:24.781Z,99.99
2023-01-27T05:40:24.780Z,99.99
2023-01-27T05:41:24.756Z,99.99
2023-01-27T05:42:26.728Z,99.99
2023-01-27T05:43:24.737Z,99.99
2023-01-27T05:44:25.708Z,99.99
2023-01-27T05:45:24.739Z,99.99
2023-01-27T05:46:24.737Z,99.99
2023-01-27T05:47:24.732Z,99.79
2023-01-27T05:48:24.708Z,99.95
2023-01-27T05:49:24.733Z,99.79
2023-01-27T05:50:24.742Z,99.95
2023-01-27T05:51:24.704Z,99.89
2023-01-27T05:52:24.680Z,99.11
2023-01-27T05:53:25.672Z,99.05
2023-01-27T05:54:25.243Z,98.90
2023-01-27T05:55:24.685Z,99.16
2023-01-27T05:56:24.649Z,99.01
2023-01-27T05:57:24.631Z,99.16
2023-01-27T05:58:24.634Z,99.26
2023-01-27T05:59:24.633Z,99.26
2023-01-27T06:00:24.611Z,99.53
2023-01-27T06:01:25.160Z,99.53
2023-01-27T06:02:24.602Z,99.32
2023-01-27T06:03:24.591Z,98.59
2023-01-27T06:04:24.590Z,98.59
2023-01-27T06:05:24.605Z,98.59
2023-01-27T06:06:24.572Z,98.38
2023-01-27T06:07:24.565Z,98.49
2023-01-27T06:08:24.566Z,98.49
2023-01-27T06:09:25.168Z,98.07
2023-01-27T06:10:24.591Z,97.97
2023-01-27T06:11:24.541Z,97.55
2023-01-27T06:12:24.513Z,97.80
2023-01-27T06:13:24.520Z,98.07
2023-01-27T06:14:24.536Z,98.11
2023-01-27T06:15:24.500Z,98.07
2023-01-27T06:16:24.546Z,97.75
2023-01-27T06:18:30.781Z,97.97
2023-01-27T06:19:31.858Z,98.28
2023-01-27T06:20:32.615Z,98.07
2023-01-27T06:21:31.851Z,98.18
2023-01-27T06:22:31.838Z,98.07
2023-01-27T06:23:33.747Z,98.28
2023-01-27T06:24:31.886Z,98.07
2023-01-27T06:25:31.888Z,97.55
2023-01-27T06:26:33.627Z,97.86
2023-01-27T06:27:31.811Z,97.92
2023-01-27T06:28:33.621Z,98.18
2023-01-27T06:29:31.787Z,97.86
2023-01-27T06:30:32.780Z,97.61
2023-01-27T06:31:31.842Z,97.92
2023-01-27T06:32:31.771Z,98.13
2023-01-27T06:33:31.767Z,97.61
2023-01-27T06:34:32.627Z,98.13
2023-01-27T06:35:31.723Z,96.88
2023-01-27T06:36:32.726Z,96.98
2023-01-27T06:37:33.632Z,96.98
2023-01-27T06:38:31.730Z,97.30
2023-01-27T06:39:31.703Z,97.19
2023-01-27T06:40:31.753Z,96.77
2023-01-27T06:41:31.691Z,97.65
2023-01-27T06:42:31.676Z,97.13
2023-01-27T06:43:31.675Z,97.34
2023-01-27T06:44:31.682Z,97.34
2023-01-27T06:45:32.653Z,97.92
2023-01-27T06:46:31.788Z,98.07
2023-01-27T06:47:31.639Z,97.97
2023-01-27T06:48:31.708Z,97.81
2023-01-27T06:49:31.626Z,97.86
2023-01-27T06:50:31.667Z,98.07
2023-01-27T06:51:31.613Z,97.97
2023-01-27T06:52:31.603Z,97.34
2023-01-27T06:53:31.609Z,97.65
2023-01-27T06:54:31.599Z,97.97
2023-01-27T06:55:31.609Z,97.86
2023-01-27T06:56:32.819Z,97.86
2023-01-27T06:57:31.644Z,97.97
2023-01-27T06:58:38.228Z,97.75
2023-01-27T06:59:31.552Z,98.07
2023-01-27T07:00:31.555Z,98.07
2023-01-27T07:01:31.576Z,98.02
2023-01-27T07:02:31.588Z,97.86
2023-01-27T07:03:31.510Z,98.18
2023-01-27T07:04:31.505Z,98.18
2023-01-27T07:05:31.500Z,98.02
2023-01-27T07:06:31.504Z,97.92
2023-01-27T07:07:31.491Z,97.50
2023-01-27T07:08:31.496Z,96.98
2023-01-27T07:09:37.525Z,96.46
2023-01-27T07:10:33.470Z,96.77
2023-01-27T07:11:31.474Z,96.56
2023-01-27T07:12:31.456Z,96.77
2023-01-27T07:13:31.444Z,96.88
2023-01-27T07:14:31.502Z,96.36
2023-01-27T07:15:31.431Z,96.25
2023-01-27T07:16:33.271Z,95.73
2023-01-27T07:17:31.417Z,95.73
2023-01-27T07:18:31.447Z,96.36
2023-01-27T07:19:31.405Z,95.94
2023-01-27T07:20:31.391Z,95.94
2023-01-27T07:21:31.397Z,96.25
2023-01-27T07:22:31.427Z,96.25
2023-01-27T07:23:31.374Z,95.94
2023-01-27T07:24:31.352Z,95.79
2023-01-27T07:25:31.355Z,95.94
2023-01-27T07:26:31.344Z,95.94
2023-01-27T07:27:32.230Z,96.04
2023-01-27T07:28:31.366Z,95.94
2023-01-27T07:29:31.341Z,96.04
2023-01-27T07:30:31.317Z,96.04
2023-01-27T07:31:31.387Z,96.88
2023-01-27T07:32:31.319Z,95.94
2023-01-27T07:33:31.305Z,95.83
2023-01-27T07:34:31.289Z,95.94
2023-01-27T07:35:31.281Z,96.15
2023-01-27T07:36:31.278Z,96.31
2023-01-27T07:37:31.262Z,96.15
2023-01-27T07:38:31.278Z,96.04
2023-01-27T07:39:32.134Z,96.15
2023-01-27T07:40:31.236Z,96.98
2023-01-27T07:41:31.226Z,95.79
2023-01-27T07:42:31.215Z,95.94
2023-01-27T07:43:31.215Z,95.89
2023-01-27T07:44:31.195Z,96.25
2023-01-27T07:45:31.333Z,96.31
2023-01-27T07:46:31.182Z,96.42
2023-01-27T07:47:31.178Z,95.58
2023-01-27T07:48:31.173Z,95.48
2023-01-27T07:49:31.225Z,95.48
2023-01-27T07:50:31.196Z,95.10
2023-01-27T07:51:31.157Z,95.48
2023-01-27T07:52:31.139Z,95.37
2023-01-27T07:53:31.147Z,95.17
2023-01-27T07:54:31.137Z,94.96
2023-01-27T07:55:31.119Z,94.96
2023-01-27T07:56:31.111Z,94.75
2023-01-27T07:57:31.109Z,94.64
2023-01-27T07:58:32.674Z,94.96
2023-01-27T07:59:31.265Z,95.06
2023-01-27T08:00:31.122Z,95.23
2023-01-27T08:01:31.077Z,95.27
2023-01-27T08:02:31.232Z,96.00
2023-01-27T08:03:31.073Z,95.17
2023-01-27T08:04:35.208Z,96.62
2023-01-27T08:05:33.062Z,95.37
2023-01-27T08:06:31.079Z,94.64
2023-01-27T08:07:31.035Z,94.75
2023-01-27T08:08:31.103Z,94.85
2023-01-27T08:09:31.004Z,94.85
2023-01-27T08:10:31.017Z,95.06
2023-01-27T08:11:31.004Z,94.64
2023-01-27T08:12:31.040Z,94.85
2023-01-27T08:13:31.024Z,94.64
2023-01-27T08:14:30.969Z,95.37
2023-01-27T08:15:30.988Z,94.85
2023-01-27T08:16:32.819Z,94.96
2023-01-27T08:17:30.944Z,94.75
2023-01-27T08:18:30.941Z,95.17
2023-01-27T08:19:32.632Z,94.70
2023-01-27T08:20:30.930Z,94.60
2023-01-27T08:21:30.918Z,94.33
2023-01-27T08:22:30.907Z,94.92
2023-01-27T08:23:30.910Z,94.54
2023-01-27T08:24:30.941Z,94.92
2023-01-27T08:25:30.893Z,94.70
2023-01-27T08:26:31.649Z,95.02
2023-01-27T08:27:30.890Z,94.70
2023-01-27T08:28:30.883Z,94.60
2023-01-27T08:29:30.880Z,94.64
2023-01-27T08:30:30.902Z,94.60
2023-01-27T08:31:30.933Z,94.39
2023-01-27T08:32:30.845Z,94.39
2023-01-27T08:33:30.868Z,94.60
2023-01-27T08:34:30.826Z,94.70
2023-01-27T08:35:30.816Z,94.54
2023-01-27T08:36:30.806Z,94.75
2023-01-27T08:37:30.868Z,94.23
2023-01-27T08:38:30.801Z,94.70
2023-01-27T08:39:30.787Z,94.43
2023-01-27T08:40:31.764Z,94.81
2023-01-27T08:41:30.778Z,94.60
2023-01-27T08:42:30.755Z,95.64
2023-01-27T08:43:31.776Z,94.70
2023-01-27T08:44:30.759Z,95.08
2023-01-27T08:45:30.738Z,94.60
2023-01-27T08:46:30.737Z,94.60
2023-01-27T08:47:30.728Z,94.39
2023-01-27T08:48:30.720Z,94.87
2023-01-27T08:49:30.714Z,94.60
2023-01-27T08:50:30.763Z,94.14
2023-01-27T08:51:30.698Z,95.33
2023-01-27T08:52:30.709Z,95.12
2023-01-27T08:53:30.697Z,95.85
2023-01-27T08:54:32.395Z,96.01
2023-01-27T08:55:30.681Z,96.26
2023-01-27T08:56:31.660Z,96.06
2023-01-27T21:25:16.623Z,94.08
2023-01-27T21:26:16.156Z,93.87
2023-01-27T21:27:17.985Z,93.77
2023-01-27T21:28:16.145Z,93.98
2023-01-27T21:29:16.141Z,94.18
2023-01-27T21:30:16.135Z,93.98
2023-01-27T21:31:16.223Z,93.83
2023-01-27T21:32:17.208Z,93.87
2023-01-27T21:33:17.207Z,93.77
2023-01-27T21:34:17.190Z,93.35
2023-01-27T21:35:17.209Z,93.66
2023-01-27T21:36:17.189Z,93.66
2023-01-27T21:37:17.168Z,93.35
2023-01-27T21:38:17.170Z,93.10
2023-01-27T21:39:17.158Z,93.62
2023-01-27T21:40:17.146Z,92.93
2023-01-27T21:41:17.151Z,93.04
2023-01-27T21:42:17.134Z,93.04
2023-01-27T21:43:17.129Z,93.04
2023-01-27T21:44:17.119Z,92.27
2023-01-27T21:45:17.571Z,92.93
2023-01-27T21:46:17.155Z,92.47
2023-01-27T21:47:17.127Z,92.41
2023-01-27T21:48:17.095Z,92.37
2023-01-27T21:49:17.077Z,92.79
2023-01-27T21:50:17.075Z,92.93
2023-01-27T21:51:17.068Z,93.14
2023-01-27T21:52:17.075Z,93.24
2023-01-27T21:53:17.056Z,92.83
2023-01-27T21:54:17.056Z,92.68
2023-01-27T21:55:17.468Z,92.52
2023-01-27T21:56:17.031Z,92.79
2023-01-27T21:57:17.024Z,93.24
2023-01-27T21:58:17.034Z,93.24
2023-01-27T21:59:17.003Z,92.93
2023-01-27T22:00:17.005Z,93.35
2023-01-27T22:01:17.012Z,93.31
2023-01-27T22:02:16.983Z,93.20
2023-01-27T22:03:16.976Z,93.35
2023-01-27T22:04:17.011Z,93.66
2023-01-27T22:05:17.424Z,93.87
2023-01-27T22:06:17.052Z,93.93
2023-01-27T22:07:16.977Z,94.08
2023-01-27T22:08:16.930Z,93.77
2023-01-27T22:09:16.919Z,93.46
2023-01-27T22:10:16.932Z,93.77
2023-01-27T22:11:17.583Z,93.87
2023-01-27T22:12:18.561Z,94.18
2023-01-27T22:13:16.896Z,93.87
2023-01-27T22:14:17.478Z,94.18
2023-01-27T22:15:17.165Z,94.29
2023-01-27T22:16:16.906Z,94.39
2023-01-27T22:17:18.978Z,94.60
2023-01-27T22:18:16.894Z,95.02
2023-01-27T22:19:16.845Z,95.43
2023-01-27T22:20:16.837Z,95.06
2023-01-27T22:21:16.830Z,94.70
2023-01-27T22:22:16.824Z,94.75
2023-01-27T22:23:16.813Z,94.64
2023-01-27T22:24:17.494Z,95.06
2023-01-27T22:25:17.306Z,94.92
2023-01-27T22:26:16.788Z,95.02
2023-01-27T22:27:16.799Z,94.60
2023-01-27T22:28:16.786Z,94.85
2023-01-27T22:30:23.552Z,94.49
2023-01-27T22:31:23.541Z,94.75
2023-01-27T22:32:24.686Z,94.64
2023-01-27T22:33:24.611Z,95.02
2023-01-27T22:34:24.604Z,94.85
2023-01-27T22:35:24.609Z,94.75
2023-01-27T22:36:24.599Z,95.06
2023-01-27T22:37:24.589Z,95.48
2023-01-27T22:38:24.573Z,94.33
2023-01-27T22:39:25.495Z,94.54
2023-01-27T22:40:24.557Z,94.54
2023-01-27T22:41:25.484Z,95.17
2023-01-27T22:42:24.571Z,95.06
2023-01-27T22:43:24.533Z,94.54
2023-01-27T22:44:24.522Z,94.18
2023-01-27T22:45:24.576Z,94.64
2023-01-27T22:46:24.528Z,94.60
2023-01-27T22:47:24.500Z,94.23
2023-01-27T22:48:24.509Z,94.85
2023-01-27T22:49:24.487Z,94.92
2023-01-27T22:50:25.425Z,95.79
2023-01-27T22:51:24.988Z,94.85
2023-01-27T22:52:24.463Z,95.48
2023-01-27T22:53:24.462Z,94.96
2023-01-27T22:54:24.445Z,94.75
2023-01-27T22:55:24.436Z,94.85
2023-01-27T22:56:24.442Z,95.06
2023-01-27T22:57:24.422Z,95.17
2023-01-27T22:58:24.409Z,94.96
2023-01-27T22:59:24.410Z,94.64
2023-01-27T23:00:24.400Z,94.12
2023-01-27T23:01:24.507Z,94.54
2023-01-27T23:02:24.394Z,94.54
2023-01-27T23:03:24.374Z,95.17
2023-01-27T23:04:24.387Z,94.64
2023-01-27T23:05:24.357Z,94.33
2023-01-27T23:06:25.418Z,94.02
2023-01-27T23:07:24.351Z,93.81
2023-01-27T23:08:24.333Z,93.77
2023-01-27T23:09:24.324Z,93.29
2023-01-27T23:10:24.321Z,93.91
2023-01-27T23:11:24.341Z,93.71
2023-01-27T23:12:24.305Z,93.29
2023-01-27T23:13:24.292Z,93.60
2023-01-27T23:14:24.287Z,93.40
2023-01-27T23:15:24.283Z,92.35
2023-01-27T23:16:25.367Z,92.72
2023-01-27T23:17:24.287Z,92.56
2023-01-27T23:18:24.256Z,92.41
2023-01-27T23:19:24.267Z,92.41
2023-01-27T23:20:24.254Z,92.77
2023-01-27T23:21:24.244Z,93.14
2023-01-27T23:22:24.230Z,92.77
2023-01-27T23:23:25.235Z,92.56
2023-01-27T23:24:24.234Z,93.08
2023-01-27T23:25:24.231Z,92.52
2023-01-27T23:26:24.916Z,92.46
2023-01-27T23:27:24.223Z,93.18
2023-01-27T23:28:24.205Z,92.25
2023-01-27T23:29:25.822Z,92.46
2023-01-27T23:30:25.185Z,92.56
2023-01-27T23:31:24.433Z,92.46
2023-01-27T23:32:25.010Z,92.31
2023-01-27T23:33:24.229Z,92.35
2023-01-27T23:34:24.136Z,92.46
2023-01-27T23:35:24.146Z,92.14
2023-01-27T23:36:24.139Z,91.62
2023-01-27T23:38:33.758Z,92.00
2023-01-27T23:39:31.283Z,91.72
2023-01-27T23:40:31.265Z,91.68
2023-01-27T23:41:31.254Z,92.03
2023-01-27T23:42:31.246Z,92.00
2023-01-27T23:43:31.252Z,91.78
2023-01-27T23:44:31.241Z,91.31
2023-01-27T23:45:31.228Z,91.16
2023-01-27T23:46:31.333Z,91.37
2023-01-27T23:47:31.222Z,90.68
2023-01-27T23:48:31.206Z,91.27
2023-01-27T23:49:31.210Z,91.37
2023-01-27T23:50:31.187Z,90.85
2023-01-27T23:51:31.178Z,90.33
2023-01-27T23:52:31.176Z,90.44
2023-01-27T23:53:31.160Z,91.20
2023-01-27T23:54:31.151Z,91.16
2023-01-27T23:55:31.157Z,90.75
2023-01-27T23:56:31.141Z,91.27
2023-01-27T23:57:31.141Z,90.85
2023-01-27T23:58:31.123Z,90.95
2023-01-27T23:59:31.135Z,90.58
